The Eastern Iowa Airport Cedar Rapids US
ICAO: KCID
IATA: CID
Category: Large
Scheduled Services: Yes

Elevation: 869 ft
TransAlt. 18000 ft.

Airport Communications:
APP/DEP:119.05
ATIS:124.15
CLNC DEL:125.45
CTAF:118.7
GND:121.6
FORT DODGE RDO:122.55
TWR:118.7
UNICOM:122.95

KCID Zoom In..

If you have problems with the map follow the link
https://www.worldairports.se/pages/airport.php?
ICAO=KCID

Runways:

(A) RW 09 length 8600 ft width 150 ft
ILS 109.30 / hdg 89

(B) RW 13 length 6200 ft width 150 ft
---- / hdg 134

(C) RW 27 length 8600 ft width 150 ft
ILS 111.30 / hdg 269

(D) RW 31 length 6200 ft width 150 ft
---- / hdg 314

Location; KCID
Day. 06 / Time. 12.52 Zulu
* Altimeter: 30.25
* Temperature: -02° c. -28.4°f.
* Wind from: 360° Speed 12 kn.
Dewpoint: -04° c.
Visibility: 10 Statute Miles.
Clouds: Clear (automated report).

KCID 061252Z 36012KT 10SM CLR M02/M04 A3025 RMK AO2 PK WND 02026/1154 SLP251 T10171044


Wind From 360°
Speed 12 kn.

 
 
jpsmedia worldairports.se 2019   terms of use